createdAt,value
2023-04-16T00:01:50.784Z,78.98
2023-04-16T00:04:17.664Z,79.27
2023-04-16T00:06:44.429Z,79.69
2023-04-16T00:09:11.351Z,79.54
2023-04-16T00:11:38.185Z,79.79
2023-04-16T00:14:04.987Z,79.52
2023-04-16T00:16:31.864Z,79.41
2023-04-16T00:18:58.615Z,79.01
2023-04-16T00:21:26.447Z,78.80
2023-04-16T00:23:53.489Z,79.38
2023-04-16T00:26:20.134Z,79.19
2023-04-16T00:28:46.865Z,79.77
2023-04-16T00:31:13.534Z,79.87
2023-04-16T00:33:40.267Z,79.93
2023-04-16T00:36:07.538Z,80.12
2023-04-16T00:38:34.253Z,78.55
2023-04-16T00:41:01.117Z,77.43
2023-04-16T00:43:27.777Z,77.67
2023-04-16T00:45:57.067Z,76.82
2023-04-16T00:48:23.924Z,76.74
2023-04-16T00:50:50.573Z,77.08
2023-04-16T00:53:17.512Z,76.40
2023-04-16T00:55:44.656Z,76.22
2023-04-16T00:58:11.483Z,76.18
2023-04-16T01:00:38.173Z,76.16
2023-04-16T01:03:09.094Z,76.11
2023-04-16T01:05:36.804Z,76.60
2023-04-16T01:08:03.573Z,76.67
2023-04-16T01:10:30.178Z,76.92
2023-04-16T01:12:56.803Z,77.93
2023-04-16T01:15:23.453Z,77.56
2023-04-16T01:17:51.466Z,77.71
2023-04-16T01:20:18.277Z,79.13
2023-04-16T01:22:44.956Z,78.88
2023-04-16T01:25:15.221Z,78.39
2023-04-16T01:27:42.096Z,79.67
2023-04-16T01:30:09.081Z,80.43
2023-04-16T01:32:35.775Z,80.61
2023-04-16T01:35:02.438Z,81.61
2023-04-16T01:37:31.446Z,81.87
2023-04-16T01:39:58.134Z,81.72
2023-04-16T01:42:24.775Z,81.41
2023-04-16T01:44:51.381Z,81.64
2023-04-16T01:47:18.280Z,81.57
2023-04-16T01:49:45.777Z,81.91
2023-04-16T01:52:12.424Z,82.20
2023-04-16T01:54:39.049Z,82.13
2023-04-16T01:57:05.695Z,81.77
2023-04-16T01:59:32.238Z,82.16
2023-04-16T02:02:11.322Z,82.26
2023-04-16T02:04:41.963Z,81.91
2023-04-16T02:07:09.248Z,82.50
2023-04-16T02:09:36.933Z,82.05
2023-04-16T02:12:04.074Z,81.84
2023-04-16T02:14:31.794Z,81.78
2023-04-16T02:16:58.688Z,82.03
2023-04-16T02:19:25.629Z,81.77
2023-04-16T02:21:53.070Z,81.52
2023-04-16T02:24:22.640Z,81.78
2023-04-16T02:26:49.248Z,81.40
2023-04-16T02:29:16.674Z,81.72
2023-04-16T02:31:43.469Z,81.25
2023-04-16T02:34:10.262Z,81.82
2023-04-16T02:36:36.981Z,81.32
2023-04-16T02:39:03.925Z,81.87
2023-04-16T02:41:30.770Z,81.94
2023-04-16T02:43:57.448Z,81.91
2023-04-16T02:46:24.360Z,81.63
2023-04-16T02:48:51.156Z,81.89
2023-04-16T02:51:17.800Z,81.73
2023-04-16T02:53:46.157Z,81.10
2023-04-16T02:56:13.221Z,81.12
2023-04-16T02:58:40.022Z,80.34
2023-04-16T03:01:06.680Z,80.82
2023-04-16T03:03:33.517Z,81.31
2023-04-16T03:06:00.135Z,81.44
2023-04-16T03:08:27.502Z,82.03
2023-04-16T03:10:54.156Z,82.05
2023-04-16T03:13:20.838Z,80.01
2023-04-16T03:15:50.734Z,77.44
2023-04-16T03:18:17.459Z,77.13
2023-04-16T03:20:47.100Z,76.78
2023-04-16T03:23:13.744Z,76.39
2023-04-16T03:25:40.830Z,75.91
2023-04-16T03:28:07.510Z,75.93
2023-04-16T03:30:34.158Z,76.25
2023-04-16T03:33:01.338Z,76.52
2023-04-16T03:35:28.103Z,76.38
2023-04-16T03:37:54.772Z,76.89
2023-04-16T03:40:21.419Z,76.84
2023-04-16T03:42:47.932Z,76.95
2023-04-16T03:45:15.321Z,76.50
2023-04-16T03:47:45.333Z,77.04
2023-04-16T03:50:12.064Z,77.70
2023-04-16T03:52:38.698Z,77.28
2023-04-16T03:55:06.083Z,77.97
2023-04-16T03:57:32.760Z,77.57
2023-04-16T03:59:59.334Z,77.61
2023-04-16T04:02:26.082Z,77.64
2023-04-16T04:04:52.848Z,78.15
2023-04-16T04:07:19.424Z,77.94
2023-04-16T04:09:46.116Z,78.45
2023-04-16T04:12:13.621Z,78.01
2023-04-16T04:14:40.332Z,78.15
2023-04-16T04:17:07.398Z,78.42
2023-04-16T04:19:34.124Z,78.90
2023-04-16T04:22:00.715Z,78.61
2023-04-16T04:24:27.299Z,78.54
2023-04-16T04:26:53.918Z,78.52
2023-04-16T04:29:23.289Z,78.44
2023-04-16T04:31:49.995Z,78.30
2023-04-16T04:34:16.772Z,78.79
2023-04-16T04:36:43.455Z,78.75
2023-04-16T04:39:10.399Z,78.24
2023-04-16T04:41:37.141Z,77.09
2023-04-16T04:44:03.900Z,76.86
2023-04-16T04:46:30.516Z,76.47
2023-04-16T04:48:57.151Z,76.35
2023-04-16T04:51:23.801Z,76.69
2023-04-16T04:53:50.683Z,76.74
2023-04-16T04:56:17.307Z,77.69
2023-04-16T04:58:44.266Z,78.45
2023-04-16T05:01:14.190Z,79.93
2023-04-16T05:03:40.895Z,80.63
2023-04-16T05:06:07.873Z,80.36
2023-04-16T05:08:34.478Z,80.92
2023-04-16T05:11:01.577Z,81.40
2023-04-16T05:13:28.167Z,81.12
2023-04-16T05:15:54.880Z,80.91
2023-04-16T05:18:21.477Z,81.24
2023-04-16T05:20:48.088Z,81.17
2023-04-16T05:23:15.820Z,79.39
2023-04-16T05:25:42.450Z,75.71
2023-04-16T05:28:10.119Z,75.02
2023-04-16T05:30:36.730Z,74.65
2023-04-16T05:33:03.838Z,73.80
2023-04-16T05:35:30.621Z,73.32
2023-04-16T05:37:57.234Z,73.12
2023-04-16T05:40:23.827Z,72.56
2023-04-16T05:42:50.666Z,72.47
2023-04-16T05:45:17.316Z,71.55
2023-04-16T05:47:46.818Z,71.54
2023-04-16T05:50:13.502Z,72.38
2023-04-16T05:52:40.231Z,72.21
2023-04-16T05:55:07.229Z,72.09
2023-04-16T05:57:36.228Z,72.13
2023-04-16T06:00:03.752Z,72.00
2023-04-16T06:02:31.585Z,71.47
2023-04-16T06:04:58.335Z,71.64
2023-04-16T06:07:24.948Z,70.70
2023-04-16T06:09:51.516Z,69.54
2023-04-16T06:12:18.150Z,68.93
2023-04-16T06:14:44.770Z,67.89
2023-04-16T06:17:11.381Z,66.98
2023-04-16T06:19:38.005Z,66.19
2023-04-16T06:22:06.591Z,66.11
2023-04-16T06:24:35.788Z,65.68
2023-04-16T06:27:03.089Z,64.67
2023-04-16T06:29:40.525Z,65.09
2023-04-16T06:32:08.315Z,63.74
2023-04-16T06:34:35.128Z,64.10
2023-04-16T06:37:01.707Z,62.36
2023-04-16T06:39:28.308Z,61.29
2023-04-16T06:41:55.031Z,60.50
2023-04-16T06:44:21.875Z,61.46
2023-04-16T06:46:48.599Z,60.63
2023-04-16T06:49:15.375Z,60.77
2023-04-16T06:51:42.355Z,60.31
2023-04-16T06:54:08.929Z,59.17
2023-04-16T06:56:37.523Z,59.71
2023-04-16T06:59:06.565Z,59.56
2023-04-16T07:01:33.521Z,58.98
2023-04-16T07:04:00.537Z,56.90
2023-04-16T07:06:27.255Z,58.87
2023-04-16T07:08:56.219Z,57.39
2023-04-16T07:11:22.960Z,56.73
2023-04-16T07:13:51.242Z,57.40
2023-04-16T07:16:21.320Z,55.59
2023-04-16T07:18:47.931Z,56.33
2023-04-16T07:21:14.563Z,55.88
2023-04-16T07:23:41.878Z,55.11
2023-04-16T07:26:08.768Z,55.24
2023-04-16T07:28:35.545Z,54.25
2023-04-16T07:31:02.191Z,53.08
2023-04-16T07:33:28.965Z,53.75
2023-04-16T07:35:55.706Z,53.61
2023-04-16T07:38:22.326Z,52.56
2023-04-16T07:40:49.037Z,53.15
2023-04-16T07:43:16.495Z,52.32
2023-04-16T07:45:43.220Z,51.42
2023-04-16T07:48:09.950Z,52.43
2023-04-16T07:50:36.852Z,51.13
2023-04-16T07:53:03.971Z,50.57
2023-04-16T07:55:30.572Z,50.20
2023-04-16T07:57:57.128Z,51.43
2023-04-16T08:00:23.794Z,52.14
2023-04-16T08:02:50.847Z,51.27
2023-04-16T08:05:17.690Z,51.54
2023-04-16T08:07:44.319Z,50.32
2023-04-16T08:10:11.247Z,49.89
2023-04-16T08:12:37.972Z,50.76
2023-04-16T08:15:08.139Z,50.64
2023-04-16T08:17:35.025Z,50.62
2023-04-16T08:20:01.880Z,50.35
2023-04-16T08:22:28.583Z,50.95
2023-04-16T08:24:57.096Z,49.87
2023-04-16T08:27:23.713Z,49.12
2023-04-16T08:29:50.389Z,48.40
2023-04-16T08:32:17.112Z,48.95
2023-04-16T08:34:43.796Z,49.06
2023-04-16T08:37:10.396Z,48.22
2023-04-16T08:39:37.890Z,47.37
2023-04-16T08:42:22.857Z,47.76
2023-04-16T08:44:53.152Z,47.85
2023-04-16T08:47:22.696Z,46.99
2023-04-16T08:49:49.509Z,48.02
2023-04-16T08:52:20.427Z,48.03
2023-04-16T08:54:57.373Z,47.96
2023-04-16T08:57:27.064Z,47.99
2023-04-16T08:59:56.244Z,48.25
2023-04-16T09:02:23.838Z,47.32
2023-04-16T09:04:51.822Z,47.13
2023-04-16T09:07:20.984Z,46.27
2023-04-16T09:09:50.457Z,46.96
2023-04-16T09:12:17.727Z,46.69
2023-04-16T09:14:49.570Z,46.84
2023-04-16T09:17:16.977Z,46.25
2023-04-16T09:19:44.009Z,47.12
2023-04-16T09:22:11.396Z,45.78
2023-04-16T09:24:41.964Z,46.47
2023-04-16T09:27:09.007Z,46.10
2023-04-16T09:29:39.636Z,46.48
2023-04-16T09:32:11.378Z,46.55
2023-04-16T09:35:01.837Z,45.12
2023-04-16T09:37:30.475Z,44.92
2023-04-16T09:39:58.198Z,44.41
2023-04-16T09:42:28.777Z,44.48
2023-04-16T09:44:58.651Z,44.82
2023-04-16T09:47:40.044Z,45.29
2023-04-16T09:50:15.374Z,44.80
2023-04-16T09:52:45.942Z,45.41
2023-04-16T09:55:12.591Z,44.89
2023-04-16T09:57:39.363Z,45.44
2023-04-16T10:00:09.077Z,44.00
2023-04-16T10:02:39.357Z,43.56
2023-04-16T10:05:06.549Z,44.32
2023-04-16T10:07:36.997Z,44.17
2023-04-16T10:10:04.832Z,43.70
2023-04-16T10:12:33.033Z,44.84
2023-04-16T10:14:59.776Z,44.34
2023-04-16T10:17:27.373Z,43.93
2023-04-16T10:19:54.865Z,43.76
2023-04-16T10:22:22.780Z,43.43
2023-04-16T10:24:51.241Z,43.28
2023-04-16T10:27:19.433Z,43.22
2023-04-16T10:29:46.922Z,43.27
2023-04-16T10:32:14.473Z,42.22
2023-04-16T10:34:41.443Z,43.48
2023-04-16T10:37:08.069Z,44.19
2023-04-16T10:39:38.900Z,42.57
2023-04-16T10:42:12.875Z,43.19
2023-04-16T10:44:45.293Z,43.60
2023-04-16T10:47:13.657Z,43.67
2023-04-16T10:49:41.556Z,43.93
2023-04-16T10:52:17.508Z,42.62
2023-04-16T10:54:44.443Z,43.89
2023-04-16T10:57:17.933Z,42.89
2023-04-16T10:59:45.393Z,42.53
2023-04-16T11:02:15.364Z,43.19
2023-04-16T11:04:46.453Z,43.97
2023-04-16T11:07:17.521Z,44.32
2023-04-16T11:09:46.138Z,42.42
2023-04-16T11:12:18.735Z,41.84
2023-04-16T11:14:53.097Z,41.21
2023-04-16T11:17:21.175Z,42.71
2023-04-16T11:19:48.530Z,43.14
2023-04-16T11:22:17.530Z,42.99
2023-04-16T11:24:47.720Z,43.48
2023-04-16T11:27:16.167Z,42.58
2023-04-16T11:29:44.077Z,42.30
2023-04-16T11:32:22.469Z,42.23
2023-04-16T11:34:49.196Z,42.76
2023-04-16T11:37:15.913Z,41.34
2023-04-16T11:39:50.911Z,41.63
2023-04-16T11:42:23.778Z,41.71
2023-04-16T11:44:55.928Z,41.57
2023-04-16T11:47:24.383Z,41.56
2023-04-16T11:49:51.554Z,41.92
2023-04-16T11:52:32.358Z,40.83
2023-04-16T11:54:59.821Z,40.74
2023-04-16T11:57:28.205Z,40.51
2023-04-16T12:00:01.977Z,41.90
2023-04-16T12:02:40.439Z,41.04
2023-04-16T12:05:28.816Z,40.89
2023-04-16T12:07:58.046Z,41.62
2023-04-16T12:10:25.149Z,40.61
2023-04-16T12:12:52.090Z,39.96
2023-04-16T12:15:19.038Z,41.66
2023-04-16T12:17:46.166Z,42.81
2023-04-16T12:20:15.964Z,42.28
2023-04-16T12:22:48.484Z,43.50
2023-04-16T12:25:17.930Z,42.34
2023-04-16T12:27:56.004Z,42.92
2023-04-16T12:30:24.443Z,42.67
2023-04-16T12:32:56.016Z,42.91
2023-04-16T12:35:32.464Z,43.12
2023-04-16T12:37:59.740Z,43.60
2023-04-16T12:40:26.834Z,44.96
2023-04-16T12:42:53.504Z,44.08
2023-04-16T12:45:20.347Z,43.67
2023-04-16T12:47:47.586Z,43.36
2023-04-16T12:50:14.544Z,43.68
2023-04-16T12:52:41.226Z,43.24
2023-04-16T12:55:08.121Z,43.08
2023-04-16T12:57:34.710Z,42.09
2023-04-16T13:00:01.462Z,42.07
2023-04-16T13:02:29.446Z,42.58
2023-04-16T13:04:56.352Z,43.07
2023-04-16T13:07:26.910Z,43.66
2023-04-16T13:09:53.697Z,42.63
2023-04-16T13:12:20.604Z,42.42
2023-04-16T13:14:47.289Z,42.39
2023-04-16T13:17:13.879Z,43.21
2023-04-16T13:19:40.723Z,42.48
2023-04-16T13:22:07.336Z,42.92
2023-04-16T13:24:33.934Z,42.86
2023-04-16T13:27:00.680Z,42.90
2023-04-16T13:29:27.337Z,42.63
2023-04-16T13:31:54.394Z,42.81
2023-04-16T13:34:21.264Z,42.24
2023-04-16T13:36:47.862Z,41.22
2023-04-16T13:39:15.567Z,40.46
2023-04-16T13:41:42.241Z,41.37
2023-04-16T13:44:08.864Z,42.64
2023-04-16T13:46:35.532Z,43.58
2023-04-16T13:49:02.255Z,43.06
2023-04-16T13:51:28.898Z,42.61
2023-04-16T13:53:56.303Z,42.17
2023-04-16T13:56:23.141Z,41.01
2023-04-16T13:58:49.904Z,41.55
2023-04-16T14:01:17.395Z,42.05
2023-04-16T14:03:44.326Z,42.20
2023-04-16T14:06:11.199Z,43.32
2023-04-16T14:08:38.326Z,42.60
2023-04-16T14:11:06.509Z,41.88
2023-04-16T14:13:33.249Z,42.66
2023-04-16T14:15:59.972Z,43.31
2023-04-16T14:18:26.667Z,43.46
2023-04-16T14:20:53.358Z,43.70
2023-04-16T14:23:20.048Z,39.67
2023-04-16T14:25:46.705Z,39.53
2023-04-16T14:28:15.642Z,40.10
2023-04-16T14:30:42.430Z,40.84
2023-04-16T14:33:09.340Z,41.11
2023-04-16T14:35:36.110Z,41.14
2023-04-16T14:38:02.957Z,41.36
2023-04-16T14:40:29.745Z,42.11
2023-04-16T14:42:56.375Z,41.13
2023-04-16T14:45:23.195Z,41.16
2023-04-16T14:47:50.894Z,41.26
2023-04-16T14:50:17.640Z,41.13
2023-04-16T14:52:44.322Z,41.57
2023-04-16T14:55:14.032Z,41.50
2023-04-16T14:57:41.637Z,41.77
2023-04-16T15:00:10.589Z,41.87
2023-04-16T15:02:37.982Z,41.52
2023-04-16T15:05:05.264Z,41.80
2023-04-16T15:07:32.082Z,41.95
2023-04-16T15:09:59.141Z,42.31
2023-04-16T15:12:26.560Z,42.42
2023-04-16T15:14:53.136Z,42.49
2023-04-16T15:17:21.586Z,42.23
2023-04-16T15:19:48.263Z,42.29
2023-04-16T15:22:14.927Z,42.56
2023-04-16T15:24:41.839Z,42.67
2023-04-16T15:27:11.615Z,43.19
2023-04-16T15:29:38.701Z,43.25
2023-04-16T15:32:07.048Z,43.89
2023-04-16T15:34:33.777Z,44.08
2023-04-16T15:37:00.471Z,43.90
2023-04-16T15:39:27.182Z,43.86
2023-04-16T15:42:01.118Z,43.85
2023-04-16T15:44:31.134Z,44.08
2023-04-16T15:46:58.100Z,44.43
2023-04-16T15:49:25.001Z,44.24
2023-04-16T15:51:52.350Z,44.34
2023-04-16T15:54:22.065Z,44.78
2023-04-16T15:56:48.676Z,44.85
2023-04-16T15:59:15.316Z,44.83
2023-04-16T16:01:41.942Z,45.10
2023-04-16T16:04:08.864Z,45.31
2023-04-16T16:06:38.116Z,45.25
2023-04-16T16:09:05.108Z,45.42
2023-04-16T16:11:32.588Z,45.45
2023-04-16T16:14:01.558Z,44.81
2023-04-16T16:16:28.798Z,45.08
2023-04-16T16:18:55.784Z,45.47
2023-04-16T16:21:22.475Z,45.20
2023-04-16T16:23:49.127Z,45.46
2023-04-16T16:26:16.145Z,45.55
2023-04-16T16:28:44.753Z,45.44
2023-04-16T16:31:12.541Z,45.97
2023-04-16T16:33:40.482Z,45.83
2023-04-16T16:36:11.256Z,45.99
2023-04-16T16:38:40.071Z,46.25
2023-04-16T16:41:07.360Z,46.38
2023-04-16T16:43:35.974Z,46.17
2023-04-16T16:46:02.698Z,46.28
2023-04-16T16:48:31.666Z,46.38
2023-04-16T16:50:58.264Z,46.80
2023-04-16T16:53:32.245Z,46.67
2023-04-16T16:55:58.821Z,47.13
2023-04-16T16:58:25.594Z,47.32
2023-04-16T17:00:52.226Z,47.51
2023-04-16T17:03:19.065Z,47.91
2023-04-16T17:05:45.825Z,47.97
2023-04-16T17:08:12.458Z,48.02
2023-04-16T17:10:39.102Z,49.23
2023-04-16T17:13:05.805Z,48.61
2023-04-16T17:15:32.365Z,49.69
2023-04-16T17:17:59.015Z,50.44
2023-04-16T17:20:28.117Z,50.70
2023-04-16T17:22:54.801Z,51.47
2023-04-16T17:25:21.563Z,51.56
2023-04-16T17:27:48.280Z,51.87
2023-04-16T17:30:15.227Z,51.85
2023-04-16T17:32:41.932Z,53.42
2023-04-16T17:35:10.059Z,53.59
2023-04-16T17:37:36.639Z,54.38
2023-04-16T17:40:07.465Z,54.42
2023-04-16T17:42:35.289Z,54.66
2023-04-16T17:45:02.723Z,55.09
2023-04-16T17:47:29.486Z,55.05
2023-04-16T17:49:56.355Z,56.12
2023-04-16T17:52:23.357Z,56.68
2023-04-16T17:54:50.054Z,55.64
2023-04-16T17:57:17.053Z,56.14
2023-04-16T17:59:43.688Z,56.53
2023-04-16T18:02:10.613Z,56.29
2023-04-16T18:04:37.442Z,56.35
2023-04-16T18:07:04.225Z,55.98
2023-04-16T18:09:31.423Z,56.99
2023-04-16T18:11:58.023Z,57.81
2023-04-16T18:14:25.163Z,57.96
2023-04-16T18:16:51.961Z,58.25
2023-04-16T18:19:18.721Z,57.83
2023-04-16T18:21:45.624Z,58.06
2023-04-16T18:24:12.603Z,58.78
2023-04-16T18:26:40.884Z,58.61
2023-04-16T18:29:08.089Z,58.47
2023-04-16T18:31:35.536Z,59.07
2023-04-16T18:34:02.348Z,58.71
2023-04-16T18:36:29.062Z,58.68
2023-04-16T18:39:02.142Z,59.26
2023-04-16T18:41:30.950Z,59.24
2023-04-16T18:43:57.718Z,59.77
2023-04-16T18:46:25.301Z,58.54
2023-04-16T18:48:52.276Z,56.46
2023-04-16T18:51:19.035Z,56.22
2023-04-16T18:53:48.627Z,56.04
2023-04-16T18:56:15.529Z,56.14
2023-04-16T18:58:43.284Z,56.26
2023-04-16T19:01:13.109Z,56.32
2023-04-16T19:03:40.211Z,56.61
2023-04-16T19:06:06.821Z,57.16
2023-04-16T19:08:33.838Z,57.30
2023-04-16T19:11:00.611Z,57.62
2023-04-16T19:13:27.464Z,58.36
2023-04-16T19:16:03.669Z,58.70
2023-04-16T19:18:30.347Z,58.74
2023-04-16T19:21:02.894Z,59.18
2023-04-16T19:23:29.568Z,59.45
2023-04-16T19:25:58.850Z,59.63
2023-04-16T19:28:25.571Z,59.62
2023-04-16T19:30:53.138Z,59.81
2023-04-16T19:33:20.216Z,59.97
2023-04-16T19:35:47.422Z,60.09
2023-04-16T19:38:14.169Z,60.14
2023-04-16T19:40:43.386Z,58.63
2023-04-16T19:43:10.044Z,58.60
2023-04-16T19:45:42.132Z,58.21
2023-04-16T19:48:08.979Z,58.00
2023-04-16T19:50:38.346Z,57.21
2023-04-16T19:53:07.565Z,57.59
2023-04-16T19:55:34.525Z,57.14
2023-04-16T19:58:06.940Z,57.25
2023-04-16T20:00:34.749Z,57.92
2023-04-16T20:03:01.575Z,57.64
2023-04-16T20:05:29.214Z,57.74
2023-04-16T20:07:56.327Z,57.51
2023-04-16T20:10:23.545Z,57.40
2023-04-16T20:12:51.436Z,56.97
2023-04-16T20:15:18.749Z,57.28
2023-04-16T20:17:45.870Z,57.15
2023-04-16T20:20:14.231Z,56.88
2023-04-16T20:22:41.217Z,56.56
2023-04-16T20:25:08.936Z,56.40
2023-04-16T20:27:35.917Z,56.14
2023-04-16T20:30:03.737Z,55.94
2023-04-16T20:32:30.389Z,56.70
2023-04-16T20:34:57.170Z,57.25
2023-04-16T20:37:23.828Z,57.97
2023-04-16T20:39:54.230Z,57.68
2023-04-16T20:42:22.167Z,58.12
2023-04-16T20:44:55.824Z,57.97
2023-04-16T20:47:22.888Z,57.96
2023-04-16T20:49:49.809Z,57.30
2023-04-16T20:52:16.915Z,57.65
2023-04-16T20:54:43.759Z,57.15
2023-04-16T20:57:10.434Z,57.71
2023-04-16T20:59:37.099Z,56.89
2023-04-16T21:02:03.899Z,57.63
2023-04-16T21:04:31.004Z,60.24
2023-04-16T21:06:57.849Z,60.79
2023-04-16T21:09:24.771Z,61.61
2023-04-16T21:11:51.411Z,61.86
2023-04-16T21:14:18.479Z,61.80
2023-04-16T21:16:47.934Z,60.99
2023-04-16T21:19:14.568Z,60.72
2023-04-16T21:21:41.894Z,61.04
2023-04-16T21:24:08.596Z,61.26
2023-04-16T21:26:35.174Z,61.90
2023-04-16T21:29:01.792Z,62.02
2023-04-16T21:31:28.660Z,61.85
2023-04-16T21:33:55.455Z,61.63
2023-04-16T21:36:22.405Z,61.75
2023-04-16T21:38:49.041Z,60.66
2023-04-16T21:41:16.474Z,60.08
2023-04-16T21:43:43.125Z,59.71
2023-04-16T21:46:09.851Z,59.69
2023-04-16T21:48:36.497Z,59.60
2023-04-16T21:51:06.605Z,59.83
2023-04-16T21:53:34.143Z,59.94
2023-04-16T21:56:00.781Z,59.67
2023-04-16T21:58:27.396Z,60.17
2023-04-16T22:00:54.358Z,60.40
2023-04-16T22:03:26.624Z,61.09
2023-04-16T22:05:58.190Z,61.51
2023-04-16T22:08:27.411Z,61.89
2023-04-16T22:10:59.293Z,61.17
2023-04-16T22:13:26.377Z,61.43
2023-04-16T22:15:53.696Z,61.63
2023-04-16T22:18:20.844Z,61.29
2023-04-16T22:20:50.787Z,61.62
2023-04-16T22:23:17.675Z,61.95
2023-04-16T22:25:44.464Z,62.41
2023-04-16T22:28:11.444Z,62.86
2023-04-16T22:30:38.126Z,62.45
2023-04-16T22:33:04.872Z,62.80
2023-04-16T22:35:34.448Z,63.16
2023-04-16T22:38:01.073Z,62.75
2023-04-16T22:40:27.677Z,63.06
2023-04-16T22:42:54.326Z,63.43
2023-04-16T22:45:20.931Z,63.83
2023-04-16T22:47:47.576Z,63.64
2023-04-16T22:50:14.960Z,63.79
2023-04-16T22:52:43.823Z,64.21
2023-04-16T22:55:10.860Z,64.78
2023-04-16T22:57:37.436Z,64.47
2023-04-16T23:00:06.556Z,64.34
2023-04-16T23:02:33.402Z,64.65
2023-04-16T23:05:00.773Z,64.92
2023-04-16T23:07:27.329Z,64.57
2023-04-16T23:09:53.980Z,64.62
2023-04-16T23:12:20.640Z,64.52
2023-04-16T23:14:48.169Z,64.37
2023-04-16T23:17:14.862Z,64.42
2023-04-16T23:19:41.996Z,64.03
2023-04-16T23:22:08.629Z,64.47
2023-04-16T23:24:35.384Z,64.20
2023-04-16T23:27:02.775Z,63.96
2023-04-16T23:29:29.355Z,64.33
2023-04-16T23:32:00.168Z,63.99
2023-04-16T23:34:26.788Z,63.87
2023-04-16T23:36:53.468Z,63.75
2023-04-16T23:39:20.056Z,64.40
2023-04-16T23:41:46.635Z,64.56
2023-04-16T23:44:13.318Z,64.72
2023-04-16T23:46:41.079Z,65.01
2023-04-16T23:49:07.800Z,64.17
2023-04-16T23:51:34.453Z,64.54
2023-04-16T23:54:01.132Z,64.94
2023-04-16T23:56:27.777Z,65.18
2023-04-16T23:58:54.352Z,64.87
